createdAt,value
2018-11-05T00:01:10.117Z,109.00
2018-11-05T00:03:38.810Z,106.47
2018-11-05T00:06:07.490Z,105.93
2018-11-05T00:08:36.320Z,112.97
2018-11-05T00:11:10.696Z,108.53
2018-11-05T00:13:39.355Z,104.23
2018-11-05T00:16:08.024Z,110.50
2018-11-05T00:18:36.736Z,107.63
2018-11-05T00:21:05.570Z,107.40
2018-11-05T00:23:34.290Z,106.57
2018-11-05T00:26:02.935Z,106.93
2018-11-05T00:28:31.572Z,108.47
2018-11-05T00:31:00.208Z,121.00
2018-11-05T00:33:28.937Z,119.27
2018-11-05T00:35:57.548Z,120.23
2018-11-05T00:38:26.243Z,110.73
2018-11-05T00:40:54.985Z,117.73
2018-11-05T00:43:23.607Z,117.30
2018-11-05T00:45:52.462Z,113.93
2018-11-05T00:48:20.977Z,111.57
2018-11-05T00:50:49.663Z,111.47
2018-11-05T00:53:18.360Z,115.90
2018-11-05T00:55:46.987Z,115.27
2018-11-05T00:58:15.626Z,106.70
2018-11-05T01:00:44.402Z,110.23
2018-11-05T01:03:13.045Z,110.57
2018-11-05T01:05:41.788Z,105.67
2018-11-05T01:08:10.478Z,106.70
2018-11-05T01:10:39.141Z,119.93
2018-11-05T01:13:07.820Z,110.93
2018-11-05T01:15:36.467Z,105.07
2018-11-05T01:18:05.105Z,124.97
2018-11-05T01:20:33.920Z,100.67
2018-11-05T01:23:02.562Z,100.83
2018-11-05T01:25:31.230Z,113.40
2018-11-05T01:27:59.916Z,116.75
2018-11-05T01:30:28.613Z,116.10
2018-11-05T01:32:57.272Z,115.90
2018-11-05T01:35:25.893Z,115.23
2018-11-05T01:37:54.584Z,115.12
2018-11-05T01:40:23.425Z,114.63
2018-11-05T01:42:52.101Z,107.03
2018-11-05T01:45:21.044Z,115.50
2018-11-05T01:47:49.743Z,118.53
2018-11-05T01:50:18.399Z,119.80
2018-11-05T01:52:47.061Z,105.63
2018-11-05T01:55:16.627Z,120.73
2018-11-05T01:57:45.310Z,118.30
2018-11-05T02:00:15.550Z,97.57
2018-11-05T02:02:45.228Z,109.13
2018-11-05T02:05:13.868Z,115.60
2018-11-05T02:07:43.790Z,108.87
2018-11-05T02:10:14.310Z,112.50
2018-11-05T02:12:42.919Z,108.23
2018-11-05T02:15:11.965Z,106.53
2018-11-05T02:17:42.375Z,119.33
2018-11-05T02:20:11.680Z,123.53
2018-11-05T02:22:40.371Z,113.27
2018-11-05T02:25:10.224Z,128.33
2018-11-05T02:27:39.319Z,123.43
2018-11-05T02:30:09.852Z,123.67
2018-11-05T02:32:38.512Z,107.33
2018-11-05T02:35:07.816Z,115.03
2018-11-05T02:37:36.500Z,119.07
2018-11-05T02:40:07.682Z,117.70
2018-11-05T02:42:36.382Z,116.77
2018-11-05T02:45:06.245Z,129.70
2018-11-05T02:47:34.949Z,123.43
2018-11-05T02:50:03.808Z,127.80
2018-11-05T02:52:32.426Z,125.53
2018-11-05T02:55:01.054Z,119.43
2018-11-05T02:57:29.731Z,128.67
2018-11-05T02:59:58.537Z,128.47
2018-11-05T03:02:27.191Z,129.70
2018-11-05T03:04:55.813Z,126.60
2018-11-05T03:07:24.468Z,120.93
2018-11-05T03:09:53.416Z,113.63
2018-11-05T03:12:22.071Z,85.90
2018-11-05T03:14:50.855Z,83.37
2018-11-05T03:17:19.707Z,72.97
2018-11-05T03:19:48.460Z,92.40
2018-11-05T03:22:17.112Z,91.82
2018-11-05T03:24:45.731Z,84.37
2018-11-05T03:27:14.399Z,94.03
2018-11-05T03:29:43.044Z,100.30
2018-11-05T03:32:11.685Z,98.63
2018-11-05T03:34:40.293Z,89.10
2018-11-05T03:37:09.255Z,96.77
2018-11-05T03:39:37.859Z,98.92
2018-11-05T03:42:06.558Z,94.17
2018-11-05T03:44:35.251Z,91.43
2018-11-05T03:47:03.940Z,89.00
2018-11-05T03:49:32.592Z,81.53
2018-11-05T03:52:01.231Z,77.00
2018-11-05T03:54:29.971Z,83.17
2018-11-05T03:56:58.607Z,74.73
2018-11-05T03:59:27.244Z,68.17
2018-11-05T04:01:56.419Z,66.63
2018-11-05T04:04:25.092Z,68.53
2018-11-05T04:06:53.756Z,76.93
2018-11-05T04:09:22.399Z,81.67
2018-11-05T04:11:51.155Z,78.77
2018-11-05T04:14:19.784Z,88.27
2018-11-05T04:16:48.480Z,79.07
2018-11-05T04:19:17.077Z,80.57
2018-11-05T04:21:46.060Z,80.63
2018-11-05T04:24:15.497Z,80.73
2018-11-05T04:26:45.156Z,86.87
2018-11-05T04:29:13.887Z,79.33
2018-11-05T04:31:42.512Z,83.60
2018-11-05T04:34:11.667Z,72.90
2018-11-05T04:36:40.317Z,58.93
2018-11-05T04:39:12.911Z,56.10
2018-11-05T04:41:41.659Z,72.47
2018-11-05T04:44:10.605Z,69.70
2018-11-05T04:46:39.922Z,79.47
2018-11-05T04:49:09.224Z,86.20
2018-11-05T04:51:37.940Z,86.47
2018-11-05T04:54:06.762Z,91.20
2018-11-05T04:56:35.440Z,106.93
2018-11-05T04:59:04.135Z,88.85
2018-11-05T05:01:32.762Z,94.13
2018-11-05T05:04:01.431Z,88.10
2018-11-05T05:06:30.053Z,97.57
2018-11-05T05:08:58.735Z,87.47
2018-11-05T05:11:27.407Z,94.20
2018-11-05T05:13:56.003Z,91.93
2018-11-05T05:16:24.975Z,90.87
2018-11-05T05:18:53.564Z,90.03
2018-11-05T05:21:22.175Z,93.67
2018-11-05T05:23:50.959Z,90.77
2018-11-05T05:26:19.619Z,95.43
2018-11-05T05:28:48.711Z,102.27
2018-11-05T05:31:17.350Z,97.60
2018-11-05T05:33:46.129Z,107.90
2018-11-05T05:36:14.674Z,112.47
2018-11-05T05:38:43.315Z,112.07
2018-11-05T05:41:11.969Z,103.40
2018-11-05T05:43:40.639Z,112.70
2018-11-05T05:46:09.320Z,116.77
2018-11-05T05:48:37.964Z,109.97
2018-11-05T05:51:06.600Z,107.77
2018-11-05T05:53:36.196Z,104.30
2018-11-05T05:56:05.060Z,120.87
2018-11-05T05:58:33.680Z,109.37
2018-11-05T06:01:02.343Z,105.33
2018-11-05T06:03:31.063Z,106.20
2018-11-05T06:05:59.824Z,99.77
2018-11-05T06:08:28.411Z,108.00
2018-11-05T06:10:57.088Z,116.30
2018-11-05T06:13:25.723Z,113.23
2018-11-05T06:15:54.480Z,125.77
2018-11-05T06:18:23.003Z,123.50
2018-11-05T06:20:51.659Z,115.50
2018-11-05T06:23:20.372Z,105.57
2018-11-05T06:25:49.000Z,108.75
2018-11-05T06:28:18.747Z,111.67
2018-11-05T06:30:47.396Z,99.22
2018-11-05T06:33:17.053Z,110.70
2018-11-05T06:35:45.687Z,121.10
2018-11-05T06:38:14.599Z,116.97
2018-11-05T06:40:49.834Z,118.73
2018-11-05T06:43:18.499Z,133.67
2018-11-05T06:45:47.132Z,134.93
2018-11-05T06:48:15.788Z,137.62
2018-11-05T06:50:44.424Z,143.90
2018-11-05T06:53:13.197Z,148.20
2018-11-05T06:55:41.847Z,140.87
2018-11-05T06:58:10.480Z,141.90
2018-11-05T07:00:39.924Z,140.17
2018-11-05T07:03:08.587Z,162.73
2018-11-05T07:05:37.273Z,147.80
2018-11-05T07:08:05.888Z,155.13
2018-11-05T07:10:34.635Z,152.87
2018-11-05T07:13:03.277Z,169.10
2018-11-05T07:15:31.947Z,155.57
2018-11-05T07:18:00.810Z,171.70
2018-11-05T07:20:29.484Z,153.83
2018-11-05T07:22:58.171Z,148.57
2018-11-05T07:25:26.864Z,161.80
2018-11-05T07:27:55.541Z,160.67
2018-11-05T07:30:24.711Z,165.97
2018-11-05T07:32:54.529Z,170.95
2018-11-05T07:35:23.166Z,171.90
2018-11-05T07:37:53.394Z,169.63
2018-11-05T07:40:22.216Z,170.13
2018-11-05T07:42:50.864Z,160.80
2018-11-05T07:45:20.722Z,160.83
2018-11-05T07:47:49.362Z,156.20
2018-11-05T07:50:20.096Z,152.80
2018-11-05T07:52:49.159Z,142.90
2018-11-05T07:55:18.503Z,149.43
2018-11-05T07:57:48.199Z,139.83
2018-11-05T08:00:22.292Z,142.67
2018-11-05T08:02:52.636Z,142.30
2018-11-05T08:05:21.898Z,132.33
2018-11-05T08:07:50.709Z,142.73
2018-11-05T08:10:19.400Z,138.50
2018-11-05T08:12:48.024Z,147.20
2018-11-05T08:15:19.046Z,136.03
2018-11-05T08:17:48.844Z,125.50
2018-11-05T08:20:17.539Z,139.20
2018-11-05T08:22:46.228Z,136.37
2018-11-05T08:25:15.602Z,145.90
2018-11-05T08:27:44.234Z,143.20
2018-11-05T08:30:15.252Z,135.13
2018-11-05T08:32:43.944Z,132.43
2018-11-05T08:35:13.235Z,138.27
2018-11-05T08:37:42.808Z,140.70
2018-11-05T08:40:13.724Z,139.43
2018-11-05T08:42:42.856Z,138.13
2018-11-05T08:45:12.492Z,122.63
2018-11-05T08:47:41.353Z,129.23
2018-11-05T08:50:11.909Z,145.57
2018-11-05T08:52:40.606Z,135.03
2018-11-05T08:55:11.756Z,128.53
2018-11-05T08:57:41.167Z,117.33
2018-11-05T09:00:20.214Z,134.43
2018-11-05T09:02:49.097Z,117.50
2018-11-05T09:05:17.882Z,123.47
2018-11-05T09:07:47.116Z,123.40
2018-11-05T09:10:15.927Z,116.40
2018-11-05T09:12:44.585Z,132.80
2018-11-05T09:15:15.452Z,126.90
2018-11-05T09:17:44.756Z,140.30
2018-11-05T09:20:14.432Z,131.37
2018-11-05T09:25:08.317Z,124.50
2018-11-05T09:27:37.017Z,130.80
2018-11-05T09:30:07.900Z,141.60
2018-11-05T09:32:36.668Z,137.23
2018-11-05T09:35:05.792Z,130.47
2018-11-05T09:37:34.457Z,136.07
2018-11-05T09:40:04.687Z,150.87
2018-11-05T09:42:34.285Z,133.43
2018-11-05T09:45:02.908Z,133.83
2018-11-05T09:47:31.605Z,146.33
2018-11-05T09:50:00.208Z,115.27
2018-11-05T09:52:28.831Z,122.90
2018-11-05T09:54:57.503Z,124.10
2018-11-05T09:57:26.234Z,134.97
2018-11-05T09:59:54.811Z,114.13
2018-11-05T10:02:23.479Z,129.10
2018-11-05T10:04:52.481Z,133.87
2018-11-05T10:07:20.952Z,130.80
2018-11-05T10:09:49.650Z,124.43
2018-11-05T10:12:18.243Z,111.23
2018-11-05T10:14:47.077Z,110.40
2018-11-05T10:17:15.676Z,85.97
2018-11-05T10:19:44.327Z,92.07
2018-11-05T10:22:12.944Z,75.57
2018-11-05T10:24:41.692Z,76.33
2018-11-05T10:27:10.311Z,87.00
2018-11-05T10:29:39.047Z,85.57
2018-11-05T10:32:08.595Z,104.07
2018-11-05T10:34:37.268Z,105.87
2018-11-05T10:37:06.203Z,106.83
2018-11-05T10:39:34.965Z,109.03
2018-11-05T10:42:03.644Z,102.40
2018-11-05T10:44:32.316Z,106.20
2018-11-05T10:47:01.027Z,107.53
2018-11-05T10:49:29.816Z,104.70
2018-11-05T10:51:58.601Z,106.13
2018-11-05T10:54:27.468Z,112.37
2018-11-05T10:56:56.433Z,94.60
2018-11-05T10:59:25.156Z,86.80
2018-11-05T11:01:59.212Z,103.87
2018-11-05T11:04:31.940Z,97.43
2018-11-05T11:07:01.136Z,97.10
2018-11-05T11:12:12.724Z,117.67
2018-11-05T11:14:41.502Z,112.17
2018-11-05T11:17:10.139Z,107.47
2018-11-05T11:19:38.796Z,93.73
2018-11-05T11:22:07.462Z,99.20
2018-11-05T11:24:36.072Z,92.87
2018-11-05T11:27:04.909Z,98.60
2018-11-05T11:29:33.668Z,103.03
2018-11-05T11:32:02.336Z,92.70
2018-11-05T11:34:31.060Z,94.03
2018-11-05T11:36:59.735Z,102.33
2018-11-05T11:39:28.367Z,89.80
2018-11-05T11:41:57.279Z,103.93
2018-11-05T11:44:25.930Z,105.70
2018-11-05T11:46:54.567Z,110.70
2018-11-05T11:49:23.243Z,104.57
2018-11-05T11:51:51.932Z,104.93
2018-11-05T11:54:20.602Z,106.17
2018-11-05T11:56:49.327Z,105.77
2018-11-05T11:59:17.946Z,102.23
2018-11-05T12:01:52.196Z,102.07
2018-11-05T12:04:20.870Z,114.53
2018-11-05T12:06:49.467Z,109.00
2018-11-05T12:09:18.154Z,108.25
2018-11-05T12:11:46.763Z,107.70
2018-11-05T12:14:15.617Z,104.87
2018-11-05T12:16:44.195Z,104.77
2018-11-05T12:19:12.820Z,121.10
2018-11-05T12:21:41.486Z,114.40
2018-11-05T12:24:10.172Z,111.33
2018-11-05T12:26:38.825Z,100.43
2018-11-05T12:29:07.580Z,112.17
2018-11-05T12:31:36.556Z,109.37
2018-11-05T12:34:05.528Z,110.93
2018-11-05T12:36:34.225Z,107.47
2018-11-05T12:39:03.188Z,114.77
2018-11-05T12:41:31.820Z,114.67
2018-11-05T12:44:00.461Z,109.73
2018-11-05T12:46:29.128Z,114.57
2018-11-05T12:48:57.966Z,115.83
2018-11-05T12:51:26.631Z,125.20
2018-11-05T12:53:55.300Z,122.07
2018-11-05T12:56:23.963Z,126.03
2018-11-05T12:58:52.693Z,118.75
2018-11-05T13:01:21.445Z,120.43
2018-11-05T13:03:50.383Z,127.17
2018-11-05T13:06:19.016Z,118.63
2018-11-05T13:08:48.577Z,124.30
2018-11-05T13:11:17.497Z,120.27
2018-11-05T13:13:46.225Z,118.77
2018-11-05T13:16:14.880Z,120.67
2018-11-05T13:18:43.567Z,125.47
2018-11-05T13:21:12.211Z,132.77
2018-11-05T13:23:43.859Z,134.77
2018-11-05T13:26:12.960Z,127.67
2018-11-05T13:28:41.600Z,137.67
2018-11-05T13:31:10.511Z,151.87
2018-11-05T13:33:39.163Z,141.50
2018-11-05T13:36:08.864Z,132.33
2018-11-05T13:38:38.191Z,127.00
2018-11-05T13:41:06.625Z,139.17
2018-11-05T13:43:35.293Z,131.10
2018-11-05T13:46:04.341Z,130.30
2018-11-05T13:48:33.394Z,136.93
2018-11-05T13:51:01.580Z,127.45
2018-11-05T13:53:30.215Z,123.05
2018-11-05T13:55:59.129Z,129.30
2018-11-05T13:58:27.772Z,129.03
2018-11-05T14:00:56.431Z,133.40
2018-11-05T14:03:25.327Z,135.60
2018-11-05T14:05:54.097Z,144.97
2018-11-05T14:08:22.653Z,134.03
2018-11-05T14:10:51.363Z,131.27
2018-11-05T14:13:19.956Z,128.30
2018-11-05T14:15:48.926Z,118.43
2018-11-05T14:18:17.627Z,131.40
2018-11-05T14:20:46.411Z,130.67
2018-11-05T14:23:15.050Z,127.97
2018-11-05T14:25:43.854Z,125.63
2018-11-05T14:28:12.846Z,124.03
2018-11-05T14:30:41.093Z,122.80
2018-11-05T14:33:09.807Z,124.12
2018-11-05T14:35:38.452Z,121.13
2018-11-05T14:38:07.209Z,121.57
2018-11-05T14:40:35.812Z,133.60
2018-11-05T14:43:04.861Z,119.23
2018-11-05T14:45:33.488Z,120.63
2018-11-05T14:48:02.216Z,127.75
2018-11-05T14:50:30.930Z,123.00
2018-11-05T14:52:59.545Z,125.63
2018-11-05T14:55:28.142Z,123.07
2018-11-05T14:57:56.821Z,118.63
2018-11-05T15:00:27.383Z,120.73
2018-11-05T15:02:56.695Z,139.13
2018-11-05T15:05:25.320Z,108.57
2018-11-05T15:07:54.194Z,119.57
2018-11-05T15:10:24.606Z,107.13
2018-11-05T15:12:53.272Z,116.43
2018-11-05T15:15:22.337Z,120.27
2018-11-05T15:17:51.036Z,119.17
2018-11-05T15:20:21.139Z,123.13
2018-11-05T15:22:50.012Z,115.47
2018-11-05T15:25:19.527Z,116.40
2018-11-05T15:27:48.184Z,113.80
2018-11-05T15:30:18.046Z,115.40
2018-11-05T15:32:46.758Z,113.17
2018-11-05T15:35:16.244Z,115.43
2018-11-05T15:37:45.167Z,120.70
2018-11-05T15:40:18.011Z,123.80
2018-11-05T15:42:46.666Z,112.17
2018-11-05T15:45:16.570Z,111.47
2018-11-05T15:47:45.461Z,108.83
2018-11-05T15:50:15.347Z,120.60
2018-11-05T15:52:44.331Z,117.80
2018-11-05T15:55:12.859Z,111.23
2018-11-05T15:57:41.688Z,122.42
2018-11-05T16:00:17.756Z,116.43
2018-11-05T16:02:51.099Z,117.57
2018-11-05T16:05:19.891Z,115.43
2018-11-05T16:07:48.791Z,115.87
2018-11-05T16:10:17.809Z,121.25
2018-11-05T16:12:46.479Z,120.70
2018-11-05T16:15:15.445Z,114.70
2018-11-05T16:17:44.127Z,116.90
2018-11-05T16:20:16.423Z,113.70
2018-11-05T16:22:45.602Z,121.33
2018-11-05T16:25:14.250Z,128.20
2018-11-05T16:27:43.195Z,122.73
2018-11-05T16:30:13.468Z,121.13
2018-11-05T16:32:42.592Z,132.70
2018-11-05T16:35:11.336Z,116.70
2018-11-05T16:37:40.092Z,103.27
2018-11-05T16:40:11.951Z,109.33
2018-11-05T16:42:40.720Z,107.27
2018-11-05T16:45:10.222Z,114.10
2018-11-05T16:47:39.517Z,107.53
2018-11-05T16:50:10.868Z,119.37
2018-11-05T16:52:39.520Z,111.20
2018-11-05T16:55:09.776Z,113.07
2018-11-05T16:57:38.847Z,111.70
2018-11-05T17:00:07.557Z,112.80
2018-11-05T17:02:37.012Z,113.80
2018-11-05T17:05:05.730Z,110.23
2018-11-05T17:07:34.370Z,115.57
2018-11-05T17:10:03.016Z,113.63
2018-11-05T17:12:31.659Z,111.40
2018-11-05T17:15:00.436Z,118.13
2018-11-05T17:17:29.064Z,114.87
2018-11-05T17:19:57.710Z,123.40
2018-11-05T17:22:26.351Z,116.37
2018-11-05T17:24:55.016Z,118.03
2018-11-05T17:27:23.660Z,115.57
2018-11-05T17:29:52.275Z,117.30
2018-11-05T17:32:21.941Z,116.57
2018-11-05T17:34:51.174Z,115.32
2018-11-05T17:37:20.222Z,114.67
2018-11-05T17:39:48.968Z,107.67
2018-11-05T17:42:17.593Z,120.20
2018-11-05T17:44:46.756Z,111.30
2018-11-05T17:47:15.386Z,111.50
2018-11-05T17:49:44.103Z,116.10
2018-11-05T17:52:13.452Z,118.37
2018-11-05T17:54:42.183Z,121.37
2018-11-05T17:57:10.820Z,110.00
2018-11-05T17:59:39.493Z,113.10
2018-11-05T18:02:09.925Z,118.47
2018-11-05T18:04:38.618Z,119.63
2018-11-05T18:07:07.250Z,115.00
2018-11-05T18:09:35.884Z,110.27
2018-11-05T18:12:04.981Z,108.00
2018-11-05T18:14:33.603Z,116.53
2018-11-05T18:17:02.484Z,111.77
2018-11-05T18:19:31.124Z,122.00
2018-11-05T18:21:59.755Z,112.23
2018-11-05T18:24:28.587Z,109.93
2018-11-05T18:26:57.219Z,115.40
2018-11-05T18:29:26.448Z,123.27
2018-11-05T18:31:55.211Z,117.27
2018-11-05T18:34:23.956Z,124.30
2018-11-05T18:36:52.568Z,116.93
2018-11-05T18:39:21.344Z,117.30
2018-11-05T18:41:50.002Z,121.80
2018-11-05T18:44:19.853Z,112.70
2018-11-05T18:46:49.469Z,115.67
2018-11-05T18:49:18.097Z,122.47
2018-11-05T18:51:46.761Z,110.97
2018-11-05T18:54:15.580Z,121.13
2018-11-05T18:56:44.231Z,126.17
2018-11-05T18:59:12.898Z,122.30
2018-11-05T19:01:41.592Z,113.53
2018-11-05T19:04:10.305Z,121.73
2018-11-05T19:06:39.062Z,120.77
2018-11-05T19:09:07.876Z,118.17
2018-11-05T19:11:36.536Z,119.17
2018-11-05T19:14:05.279Z,117.30
2018-11-05T19:16:34.029Z,122.92
2018-11-05T19:19:02.692Z,114.10
2018-11-05T19:21:31.486Z,116.03
2018-11-05T19:24:00.630Z,122.90
2018-11-05T19:26:29.146Z,124.23
2018-11-05T19:28:57.809Z,120.77
2018-11-05T19:31:26.506Z,115.70
2018-11-05T19:33:55.180Z,115.53
2018-11-05T19:36:24.151Z,116.42
2018-11-05T19:38:53.316Z,114.03
2018-11-05T19:41:22.661Z,113.80
2018-11-05T19:43:51.421Z,113.23
2018-11-05T19:46:20.088Z,119.30
2018-11-05T19:48:48.810Z,111.93
2018-11-05T19:51:17.454Z,112.87
2018-11-05T19:53:46.147Z,115.83
2018-11-05T19:56:14.939Z,115.27
2018-11-05T19:58:43.566Z,123.40
2018-11-05T20:01:12.236Z,115.73
2018-11-05T20:03:41.588Z,113.80
2018-11-05T20:06:10.557Z,121.03
2018-11-05T20:08:39.164Z,122.23
2018-11-05T20:11:07.808Z,117.97
2018-11-05T20:13:36.555Z,117.77
2018-11-05T20:16:05.320Z,115.13
2018-11-05T20:18:34.008Z,129.30
2018-11-05T20:21:02.687Z,117.37
2018-11-05T20:23:32.225Z,104.38
2018-11-05T20:26:01.533Z,127.17
2018-11-05T20:28:30.301Z,112.50
2018-11-05T20:30:58.879Z,122.30
2018-11-05T20:33:28.393Z,109.53
2018-11-05T20:35:57.116Z,116.07
2018-11-05T20:38:25.781Z,107.30
2018-11-05T20:40:54.809Z,126.57
2018-11-05T20:43:23.417Z,104.63
2018-11-05T20:45:52.076Z,113.13
2018-11-05T20:48:20.770Z,116.13
2018-11-05T20:50:49.693Z,119.20
2018-11-05T20:53:18.646Z,112.40
2018-11-05T20:55:47.229Z,126.93
2018-11-05T20:58:15.895Z,124.23
2018-11-05T21:00:44.584Z,129.73
2018-11-05T21:03:13.251Z,115.23
2018-11-05T21:05:41.935Z,115.37
2018-11-05T21:08:10.716Z,120.23
2018-11-05T21:10:39.569Z,114.93
2018-11-05T21:13:09.429Z,119.37
2018-11-05T21:15:38.303Z,117.00
2018-11-05T21:18:07.355Z,116.30
2018-11-05T21:20:35.991Z,133.70
2018-11-05T21:23:04.742Z,117.77
2018-11-05T21:25:33.363Z,109.43
2018-11-05T21:28:02.006Z,115.50
2018-11-05T21:30:30.772Z,113.37
2018-11-05T21:32:59.833Z,116.28
2018-11-05T21:45:09.620Z,112.87
2018-11-05T21:47:38.799Z,106.70
2018-11-05T21:50:09.260Z,110.80
2018-11-05T21:52:38.346Z,106.97
2018-11-05T21:55:07.534Z,109.90
2018-11-05T21:57:37.827Z,108.13
2018-11-05T22:00:09.684Z,109.03
2018-11-05T22:02:43.729Z,114.73
2018-11-05T22:05:12.515Z,118.23
2018-11-05T22:07:41.183Z,98.30
2018-11-05T22:10:10.272Z,114.97
2018-11-05T22:12:38.963Z,106.60
2018-11-05T22:15:07.611Z,111.28
2018-11-05T22:17:36.382Z,113.50
2018-11-05T22:20:05.981Z,114.27
2018-11-05T22:22:34.674Z,109.97
2018-11-05T22:25:03.392Z,112.47
2018-11-05T22:27:32.863Z,120.53
2018-11-05T22:30:01.679Z,111.60
2018-11-05T22:32:30.684Z,105.43
2018-11-05T22:35:00.118Z,94.37
2018-11-05T22:37:28.980Z,110.93
2018-11-05T22:39:57.575Z,104.27
2018-11-05T22:42:27.168Z,108.10
2018-11-05T22:44:55.987Z,97.93
2018-11-05T22:47:24.867Z,92.93
2018-11-05T22:49:53.528Z,92.23
2018-11-05T22:52:22.157Z,102.40
2018-11-05T22:54:50.909Z,94.17
2018-11-05T22:57:19.551Z,88.70
2018-11-05T22:59:48.227Z,94.30
2018-11-05T23:02:17.067Z,97.47
2018-11-05T23:04:45.756Z,96.10
2018-11-05T23:07:14.435Z,101.33
2018-11-05T23:09:43.049Z,88.40
2018-11-05T23:12:11.795Z,89.00
2018-11-05T23:14:40.607Z,101.10
2018-11-05T23:17:09.232Z,87.13
2018-11-05T23:19:38.040Z,87.60
2018-11-05T23:22:07.176Z,82.90
2018-11-05T23:24:35.910Z,81.50
2018-11-05T23:27:05.327Z,88.40
2018-11-05T23:29:34.151Z,83.70
2018-11-05T23:32:02.887Z,79.97
2018-11-05T23:34:31.532Z,77.63
2018-11-05T23:37:00.240Z,81.13
2018-11-05T23:39:29.050Z,83.63
2018-11-05T23:41:57.901Z,74.60
2018-11-05T23:44:26.536Z,83.47
2018-11-05T23:46:55.182Z,74.80
2018-11-05T23:49:23.856Z,75.07
2018-11-05T23:51:52.824Z,68.40
2018-11-05T23:54:21.624Z,70.67
2018-11-05T23:56:50.235Z,68.57
2018-11-05T23:59:18.891Z,68.53
